sensor_id;sensor_type;location;lat;lon;timestamp;P1;durP1;ratioP1;P2;durP2;ratioP2
72569;SDS011;60594;50.204;8.844;2022-10-04T00:00:57;7.70;;;4.35;;
72569;SDS011;60594;50.204;8.844;2022-10-04T00:03:44;8.52;;;3.90;;
72569;SDS011;60594;50.204;8.844;2022-10-04T00:06:20;10.50;;;4.78;;
72569;SDS011;60594;50.204;8.844;2022-10-04T00:08:54;12.05;;;4.30;;
72569;SDS011;60594;50.204;8.844;2022-10-04T00:11:27;10.63;;;4.47;;
72569;SDS011;60594;50.204;8.844;2022-10-04T00:13:58;9.52;;;4.70;;
72569;SDS011;60594;50.204;8.844;2022-10-04T00:16:32;8.95;;;4.13;;
72569;SDS011;60594;50.204;8.844;2022-10-04T00:19:20;7.65;;;4.30;;
72569;SDS011;60594;50.204;8.844;2022-10-04T00:24:23;8.18;;;3.78;;
72569;SDS011;60594;50.204;8.844;2022-10-04T00:32:40;7.85;;;3.80;;
72569;SDS011;60594;50.204;8.844;2022-10-04T00:34:45;8.80;;;3.90;;
72569;SDS011;60594;50.204;8.844;2022-10-04T00:37:17;7.93;;;3.88;;
72569;SDS011;60594;50.204;8.844;2022-10-04T00:39:55;9.50;;;4.70;;
72569;SDS011;60594;50.204;8.844;2022-10-04T00:45:42;7.57;;;3.75;;
72569;SDS011;60594;50.204;8.844;2022-10-04T00:56:16;11.98;;;4.30;;
72569;SDS011;60594;50.204;8.844;2022-10-04T01:01:25;8.40;;;3.92;;
72569;SDS011;60594;50.204;8.844;2022-10-04T01:03:55;8.90;;;3.80;;
72569;SDS011;60594;50.204;8.844;2022-10-04T01:06:25;8.90;;;4.35;;
72569;SDS011;60594;50.204;8.844;2022-10-04T01:08:53;9.70;;;3.92;;
72569;SDS011;60594;50.204;8.844;2022-10-04T01:11:33;7.93;;;3.58;;
72569;SDS011;60594;50.204;8.844;2022-10-04T01:14:49;13.48;;;4.30;;
72569;SDS011;60594;50.204;8.844;2022-10-04T01:17:06;7.18;;;3.80;;
72569;SDS011;60594;50.204;8.844;2022-10-04T01:24:38;7.63;;;3.60;;
72569;SDS011;60594;50.204;8.844;2022-10-04T01:27:29;9.23;;;4.05;;
72569;SDS011;60594;50.204;8.844;2022-10-04T01:30:09;8.90;;;4.10;;
72569;SDS011;60594;50.204;8.844;2022-10-04T01:32:38;7.43;;;3.55;;
72569;SDS011;60594;50.204;8.844;2022-10-04T01:35:06;9.55;;;4.22;;
72569;SDS011;60594;50.204;8.844;2022-10-04T01:37:37;7.38;;;3.53;;
72569;SDS011;60594;50.204;8.844;2022-10-04T01:40:06;7.72;;;3.63;;
72569;SDS011;60594;50.204;8.844;2022-10-04T01:42:35;8.60;;;3.55;;
72569;SDS011;60594;50.204;8.844;2022-10-04T01:45:15;9.07;;;3.60;;
72569;SDS011;60594;50.204;8.844;2022-10-04T01:47:50;8.07;;;3.75;;
72569;SDS011;60594;50.204;8.844;2022-10-04T01:50:33;6.80;;;2.80;;
72569;SDS011;60594;50.204;8.844;2022-10-04T01:55:40;7.60;;;3.40;;
72569;SDS011;60594;50.204;8.844;2022-10-04T01:58:13;8.35;;;3.45;;
72569;SDS011;60594;50.204;8.844;2022-10-04T02:00:46;8.20;;;3.10;;
72569;SDS011;60594;50.204;8.844;2022-10-04T02:03:22;6.38;;;3.08;;
72569;SDS011;60594;50.204;8.844;2022-10-04T02:05:57;7.38;;;3.47;;
72569;SDS011;60594;50.204;8.844;2022-10-04T02:08:30;6.47;;;3.50;;
72569;SDS011;60594;50.204;8.844;2022-10-04T02:11:00;7.13;;;3.47;;
72569;SDS011;60594;50.204;8.844;2022-10-04T02:13:33;7.63;;;3.45;;
72569;SDS011;60594;50.204;8.844;2022-10-04T02:16:02;6.50;;;3.38;;
72569;SDS011;60594;50.204;8.844;2022-10-04T02:18:33;6.55;;;3.47;;
72569;SDS011;60594;50.204;8.844;2022-10-04T02:21:03;6.28;;;3.45;;
72569;SDS011;60594;50.204;8.844;2022-10-04T02:23:31;7.25;;;3.47;;
72569;SDS011;60594;50.204;8.844;2022-10-04T02:26:04;7.57;;;3.15;;
72569;SDS011;60594;50.204;8.844;2022-10-04T02:28:32;5.28;;;2.72;;
72569;SDS011;60594;50.204;8.844;2022-10-04T02:30:59;8.02;;;3.25;;
72569;SDS011;60594;50.204;8.844;2022-10-04T02:33:47;6.00;;;2.97;;
72569;SDS011;60594;50.204;8.844;2022-10-04T02:36:15;7.65;;;2.80;;
72569;SDS011;60594;50.204;8.844;2022-10-04T02:44:20;6.28;;;3.30;;
72569;SDS011;60594;50.204;8.844;2022-10-04T02:46:49;6.18;;;3.08;;
72569;SDS011;60594;50.204;8.844;2022-10-04T02:52:09;5.70;;;3.60;;
72569;SDS011;60594;50.204;8.844;2022-10-04T02:54:53;15.43;;;3.95;;
72569;SDS011;60594;50.204;8.844;2022-10-04T02:57:22;6.50;;;3.33;;
72569;SDS011;60594;50.204;8.844;2022-10-04T02:59:49;5.63;;;2.72;;
72569;SDS011;60594;50.204;8.844;2022-10-04T03:02:28;8.20;;;3.10;;
72569;SDS011;60594;50.204;8.844;2022-10-04T03:05:02;6.15;;;2.88;;
72569;SDS011;60594;50.204;8.844;2022-10-04T03:07:32;5.63;;;2.85;;
72569;SDS011;60594;50.204;8.844;2022-10-04T03:10:00;7.50;;;2.70;;
72569;SDS011;60594;50.204;8.844;2022-10-04T03:12:32;6.20;;;2.92;;
72569;SDS011;60594;50.204;8.844;2022-10-04T03:14:58;6.00;;;2.92;;
72569;SDS011;60594;50.204;8.844;2022-10-04T03:17:25;6.07;;;3.35;;
72569;SDS011;60594;50.204;8.844;2022-10-04T03:19:52;8.77;;;3.28;;
72569;SDS011;60594;50.204;8.844;2022-10-04T03:22:18;6.60;;;2.85;;
72569;SDS011;60594;50.204;8.844;2022-10-04T03:24:49;5.55;;;2.38;;
72569;SDS011;60594;50.204;8.844;2022-10-04T03:27:19;6.15;;;3.20;;
72569;SDS011;60594;50.204;8.844;2022-10-04T03:29:50;7.30;;;3.22;;
72569;SDS011;60594;50.204;8.844;2022-10-04T03:32:16;5.30;;;2.85;;
72569;SDS011;60594;50.204;8.844;2022-10-04T03:34:57;15.25;;;2.75;;
72569;SDS011;60594;50.204;8.844;2022-10-04T03:37:26;5.82;;;2.40;;
72569;SDS011;60594;50.204;8.844;2022-10-04T03:39:55;5.90;;;2.22;;
72569;SDS011;60594;50.204;8.844;2022-10-04T03:42:23;4.30;;;2.28;;
72569;SDS011;60594;50.204;8.844;2022-10-04T03:44:54;6.82;;;2.42;;
72569;SDS011;60594;50.204;8.844;2022-10-04T03:47:34;4.75;;;2.47;;
72569;SDS011;60594;50.204;8.844;2022-10-04T03:50:06;4.80;;;2.58;;
72569;SDS011;60594;50.204;8.844;2022-10-04T03:52:46;4.55;;;1.95;;
72569;SDS011;60594;50.204;8.844;2022-10-04T03:55:15;6.80;;;2.55;;
72569;SDS011;60594;50.204;8.844;2022-10-04T03:57:43;4.82;;;2.10;;
72569;SDS011;60594;50.204;8.844;2022-10-04T04:00:13;5.57;;;2.63;;
72569;SDS011;60594;50.204;8.844;2022-10-04T04:02:43;5.97;;;2.63;;
72569;SDS011;60594;50.204;8.844;2022-10-04T04:05:22;6.65;;;2.58;;
72569;SDS011;60594;50.204;8.844;2022-10-04T04:10:25;5.95;;;2.85;;
72569;SDS011;60594;50.204;8.844;2022-10-04T04:12:55;5.45;;;2.78;;
72569;SDS011;60594;50.204;8.844;2022-10-04T04:15:26;6.20;;;2.92;;
72569;SDS011;60594;50.204;8.844;2022-10-04T04:17:55;5.30;;;2.50;;
72569;SDS011;60594;50.204;8.844;2022-10-04T04:20:28;5.35;;;2.70;;
72569;SDS011;60594;50.204;8.844;2022-10-04T04:23:11;5.60;;;2.67;;
72569;SDS011;60594;50.204;8.844;2022-10-04T04:25:48;5.68;;;2.80;;
72569;SDS011;60594;50.204;8.844;2022-10-04T04:28:24;6.85;;;2.72;;
72569;SDS011;60594;50.204;8.844;2022-10-04T04:30:55;5.28;;;2.90;;
72569;SDS011;60594;50.204;8.844;2022-10-04T04:33:30;6.68;;;2.72;;
72569;SDS011;60594;50.204;8.844;2022-10-04T04:36:03;5.80;;;2.25;;
72569;SDS011;60594;50.204;8.844;2022-10-04T04:38:32;6.65;;;2.47;;
72569;SDS011;60594;50.204;8.844;2022-10-04T04:41:06;5.35;;;2.55;;
72569;SDS011;60594;50.204;8.844;2022-10-04T04:43:35;9.88;;;2.90;;
72569;SDS011;60594;50.204;8.844;2022-10-04T04:46:02;6.40;;;2.85;;
72569;SDS011;60594;50.204;8.844;2022-10-04T04:48:33;5.28;;;2.30;;
72569;SDS011;60594;50.204;8.844;2022-10-04T04:51:01;5.00;;;1.95;;
72569;SDS011;60594;50.204;8.844;2022-10-04T04:53:28;5.00;;;2.60;;
72569;SDS011;60594;50.204;8.844;2022-10-04T04:55:56;5.63;;;2.80;;
72569;SDS011;60594;50.204;8.844;2022-10-04T04:58:29;4.95;;;2.42;;
72569;SDS011;60594;50.204;8.844;2022-10-04T05:00:58;6.50;;;2.22;;
72569;SDS011;60594;50.204;8.844;2022-10-04T05:05:55;4.85;;;2.55;;
72569;SDS011;60594;50.204;8.844;2022-10-04T05:08:23;4.88;;;2.25;;
72569;SDS011;60594;50.204;8.844;2022-10-04T05:11:04;4.60;;;2.08;;
72569;SDS011;60594;50.204;8.844;2022-10-04T05:13:50;5.38;;;2.45;;
72569;SDS011;60594;50.204;8.844;2022-10-04T05:16:39;4.88;;;2.40;;
72569;SDS011;60594;50.204;8.844;2022-10-04T05:19:13;4.47;;;2.35;;
72569;SDS011;60594;50.204;8.844;2022-10-04T05:21:43;4.55;;;1.88;;
72569;SDS011;60594;50.204;8.844;2022-10-04T05:29:21;5.00;;;2.10;;
72569;SDS011;60594;50.204;8.844;2022-10-04T05:32:02;5.70;;;2.40;;
72569;SDS011;60594;50.204;8.844;2022-10-04T05:34:40;5.10;;;2.35;;
72569;SDS011;60594;50.204;8.844;2022-10-04T05:42:38;4.53;;;2.15;;
72569;SDS011;60594;50.204;8.844;2022-10-04T05:45:15;5.97;;;2.90;;
72569;SDS011;60594;50.204;8.844;2022-10-04T05:47:42;5.38;;;2.55;;
72569;SDS011;60594;50.204;8.844;2022-10-04T05:50:16;6.38;;;3.25;;
72569;SDS011;60594;50.204;8.844;2022-10-04T05:52:47;6.05;;;2.80;;
72569;SDS011;60594;50.204;8.844;2022-10-04T06:00:34;4.18;;;1.80;;
72569;SDS011;60594;50.204;8.844;2022-10-04T06:03:23;5.97;;;1.90;;
72569;SDS011;60594;50.204;8.844;2022-10-04T06:06:00;4.68;;;1.90;;
72569;SDS011;60594;50.204;8.844;2022-10-04T06:11:41;6.82;;;2.03;;
72569;SDS011;60594;50.204;8.844;2022-10-04T06:20:20;5.07;;;2.35;;
72569;SDS011;60594;50.204;8.844;2022-10-04T06:23:00;4.68;;;2.53;;
72569;SDS011;60594;50.204;8.844;2022-10-04T06:25:33;4.47;;;2.30;;
72569;SDS011;60594;50.204;8.844;2022-10-04T06:36:20;6.05;;;2.20;;
72569;SDS011;60594;50.204;8.844;2022-10-04T06:50:18;13.02;;;5.80;;
72569;SDS011;60594;50.204;8.844;2022-10-04T07:03:53;5.47;;;2.58;;
72569;SDS011;60594;50.204;8.844;2022-10-04T07:06:32;5.80;;;2.97;;
72569;SDS011;60594;50.204;8.844;2022-10-04T07:09:06;6.70;;;2.97;;
72569;SDS011;60594;50.204;8.844;2022-10-04T07:11:54;6.00;;;2.55;;
72569;SDS011;60594;50.204;8.844;2022-10-04T07:14:28;6.68;;;2.67;;
72569;SDS011;60594;50.204;8.844;2022-10-04T07:17:01;10.77;;;2.88;;
72569;SDS011;60594;50.204;8.844;2022-10-04T07:19:40;8.35;;;3.78;;
72569;SDS011;60594;50.204;8.844;2022-10-04T07:22:13;6.53;;;3.13;;
72569;SDS011;60594;50.204;8.844;2022-10-04T07:25:06;7.28;;;3.30;;
72569;SDS011;60594;50.204;8.844;2022-10-04T07:30:47;6.28;;;3.13;;
72569;SDS011;60594;50.204;8.844;2022-10-04T07:33:21;8.90;;;4.30;;
72569;SDS011;60594;50.204;8.844;2022-10-04T07:35:51;9.25;;;3.78;;
72569;SDS011;60594;50.204;8.844;2022-10-04T07:38:26;16.75;;;7.28;;
72569;SDS011;60594;50.204;8.844;2022-10-04T07:41:08;7.93;;;3.80;;
72569;SDS011;60594;50.204;8.844;2022-10-04T07:43:49;6.90;;;3.35;;
72569;SDS011;60594;50.204;8.844;2022-10-04T07:49:09;19.42;;;8.23;;
72569;SDS011;60594;50.204;8.844;2022-10-04T08:00:27;7.28;;;3.20;;
72569;SDS011;60594;50.204;8.844;2022-10-04T08:09:15;8.65;;;3.10;;
72569;SDS011;60594;50.204;8.844;2022-10-04T08:11:51;6.95;;;3.25;;
72569;SDS011;60594;50.204;8.844;2022-10-04T08:25:50;8.70;;;3.75;;
72569;SDS011;60594;50.204;8.844;2022-10-04T08:31:51;7.63;;;3.70;;
72569;SDS011;60594;50.204;8.844;2022-10-04T08:34:32;9.48;;;3.80;;
72569;SDS011;60594;50.204;8.844;2022-10-04T08:37:30;8.57;;;3.53;;
72569;SDS011;60594;50.204;8.844;2022-10-04T08:40:34;7.25;;;3.35;;
72569;SDS011;60594;50.204;8.844;2022-10-04T09:18:19;7.85;;;3.72;;
72569;SDS011;60594;50.204;8.844;2022-10-04T09:21:08;7.63;;;3.97;;
72569;SDS011;60594;50.204;8.844;2022-10-04T09:23:59;8.65;;;3.97;;
72569;SDS011;60594;50.204;8.844;2022-10-04T09:30:19;9.20;;;3.78;;
72569;SDS011;60594;50.204;8.844;2022-10-04T09:36:15;7.97;;;3.90;;
72569;SDS011;60594;50.204;8.844;2022-10-04T09:43:10;8.40;;;4.18;;
72569;SDS011;60594;50.204;8.844;2022-10-04T09:54:17;5.78;;;3.55;;
72569;SDS011;60594;50.204;8.844;2022-10-04T09:59:46;6.20;;;3.13;;
72569;SDS011;60594;50.204;8.844;2022-10-04T10:23:02;6.78;;;2.80;;
72569;SDS011;60594;50.204;8.844;2022-10-04T10:31:57;7.13;;;2.60;;
72569;SDS011;60594;50.204;8.844;2022-10-04T10:47:43;5.78;;;2.13;;
72569;SDS011;60594;50.204;8.844;2022-10-04T11:04:45;4.53;;;2.00;;
72569;SDS011;60594;50.204;8.844;2022-10-04T11:27:13;4.05;;;1.73;;
72569;SDS011;60594;50.204;8.844;2022-10-04T11:38:08;3.90;;;1.75;;
72569;SDS011;60594;50.204;8.844;2022-10-04T11:46:52;3.80;;;1.75;;
72569;SDS011;60594;50.204;8.844;2022-10-04T11:53:04;6.10;;;2.17;;
72569;SDS011;60594;50.204;8.844;2022-10-04T12:09:02;6.07;;;1.83;;
72569;SDS011;60594;50.204;8.844;2022-10-04T12:11:49;5.80;;;1.90;;
72569;SDS011;60594;50.204;8.844;2022-10-04T12:14:52;5.35;;;2.00;;
72569;SDS011;60594;50.204;8.844;2022-10-04T12:21:08;5.78;;;1.80;;
72569;SDS011;60594;50.204;8.844;2022-10-04T12:40:35;6.82;;;2.10;;
72569;SDS011;60594;50.204;8.844;2022-10-04T12:43:12;4.78;;;1.88;;
72569;SDS011;60594;50.204;8.844;2022-10-04T12:46:05;5.07;;;1.80;;
72569;SDS011;60594;50.204;8.844;2022-10-04T12:57:10;6.50;;;2.17;;
72569;SDS011;60594;50.204;8.844;2022-10-04T13:00:03;4.65;;;1.70;;
72569;SDS011;60594;50.204;8.844;2022-10-04T13:08:26;4.57;;;2.03;;
72569;SDS011;60594;50.204;8.844;2022-10-04T13:13:42;4.88;;;1.98;;
72569;SDS011;60594;50.204;8.844;2022-10-04T13:22:29;5.13;;;1.90;;
72569;SDS011;60594;50.204;8.844;2022-10-04T13:25:13;7.07;;;2.70;;
72569;SDS011;60594;50.204;8.844;2022-10-04T13:28:06;4.38;;;2.08;;
72569;SDS011;60594;50.204;8.844;2022-10-04T13:30:46;5.25;;;1.73;;
72569;SDS011;60594;50.204;8.844;2022-10-04T13:33:45;5.18;;;1.88;;
72569;SDS011;60594;50.204;8.844;2022-10-04T13:36:41;3.90;;;1.83;;
72569;SDS011;60594;50.204;8.844;2022-10-04T13:39:44;4.82;;;2.00;;
72569;SDS011;60594;50.204;8.844;2022-10-04T13:45:08;3.83;;;1.80;;
72569;SDS011;60594;50.204;8.844;2022-10-04T13:50:56;5.00;;;1.63;;
72569;SDS011;60594;50.204;8.844;2022-10-04T13:53:36;8.00;;;1.90;;
72569;SDS011;60594;50.204;8.844;2022-10-04T13:56:52;3.70;;;1.60;;
72569;SDS011;60594;50.204;8.844;2022-10-04T14:05:19;3.42;;;1.50;;
72569;SDS011;60594;50.204;8.844;2022-10-04T14:08:09;4.07;;;1.67;;
72569;SDS011;60594;50.204;8.844;2022-10-04T14:10:46;3.85;;;1.55;;
72569;SDS011;60594;50.204;8.844;2022-10-04T14:13:44;4.32;;;1.95;;
72569;SDS011;60594;50.204;8.844;2022-10-04T14:19:05;4.07;;;1.58;;
72569;SDS011;60594;50.204;8.844;2022-10-04T14:21:50;4.65;;;1.70;;
72569;SDS011;60594;50.204;8.844;2022-10-04T14:27:27;4.18;;;1.55;;
72569;SDS011;60594;50.204;8.844;2022-10-04T14:35:46;3.28;;;1.58;;
72569;SDS011;60594;50.204;8.844;2022-10-04T14:38:27;3.53;;;2.03;;
72569;SDS011;60594;50.204;8.844;2022-10-04T14:46:36;4.15;;;1.73;;
72569;SDS011;60594;50.204;8.844;2022-10-04T14:49:16;4.82;;;1.40;;
72569;SDS011;60594;50.204;8.844;2022-10-04T14:51:56;3.58;;;1.58;;
72569;SDS011;60594;50.204;8.844;2022-10-04T14:54:38;3.92;;;1.73;;
72569;SDS011;60594;50.204;8.844;2022-10-04T15:05:40;5.20;;;1.75;;
72569;SDS011;60594;50.204;8.844;2022-10-04T15:10:49;5.07;;;1.75;;
72569;SDS011;60594;50.204;8.844;2022-10-04T15:13:32;4.10;;;1.55;;
72569;SDS011;60594;50.204;8.844;2022-10-04T15:24:50;4.45;;;1.83;;
72569;SDS011;60594;50.204;8.844;2022-10-04T15:38:35;4.13;;;1.77;;
72569;SDS011;60594;50.204;8.844;2022-10-04T15:44:08;4.82;;;1.60;;
72569;SDS011;60594;50.204;8.844;2022-10-04T15:46:44;5.55;;;1.77;;
72569;SDS011;60594;50.204;8.844;2022-10-04T15:51:59;4.70;;;2.13;;
72569;SDS011;60594;50.204;8.844;2022-10-04T15:59:54;3.78;;;2.00;;
72569;SDS011;60594;50.204;8.844;2022-10-04T16:05:33;3.70;;;1.95;;
72569;SDS011;60594;50.204;8.844;2022-10-04T16:08:13;5.57;;;2.00;;
72569;SDS011;60594;50.204;8.844;2022-10-04T16:11:02;10.05;;;6.80;;
72569;SDS011;60594;50.204;8.844;2022-10-04T16:32:16;3.72;;;1.80;;
72569;SDS011;60594;50.204;8.844;2022-10-04T16:37:52;3.30;;;1.52;;
72569;SDS011;60594;50.204;8.844;2022-10-04T16:40:36;3.83;;;1.70;;
72569;SDS011;60594;50.204;8.844;2022-10-04T16:43:26;5.38;;;1.88;;
72569;SDS011;60594;50.204;8.844;2022-10-04T16:56:29;4.78;;;1.70;;
72569;SDS011;60594;50.204;8.844;2022-10-04T16:59:02;6.00;;;1.83;;
72569;SDS011;60594;50.204;8.844;2022-10-04T17:04:32;5.38;;;1.92;;
72569;SDS011;60594;50.204;8.844;2022-10-04T17:12:41;3.75;;;1.52;;
72569;SDS011;60594;50.204;8.844;2022-10-04T17:17:59;5.72;;;2.25;;
72569;SDS011;60594;50.204;8.844;2022-10-04T17:23:11;5.22;;;2.20;;
72569;SDS011;60594;50.204;8.844;2022-10-04T17:26:12;5.45;;;2.50;;
72569;SDS011;60594;50.204;8.844;2022-10-04T17:28:54;4.97;;;2.28;;
72569;SDS011;60594;50.204;8.844;2022-10-04T17:31:26;4.43;;;2.38;;
72569;SDS011;60594;50.204;8.844;2022-10-04T17:36:34;6.88;;;3.42;;
72569;SDS011;60594;50.204;8.844;2022-10-04T17:39:16;10.65;;;3.30;;
72569;SDS011;60594;50.204;8.844;2022-10-04T17:50:21;5.50;;;2.65;;
72569;SDS011;60594;50.204;8.844;2022-10-04T17:53:27;6.40;;;2.90;;
72569;SDS011;60594;50.204;8.844;2022-10-04T17:56:29;8.15;;;3.17;;
72569;SDS011;60594;50.204;8.844;2022-10-04T17:59:05;7.38;;;3.28;;
72569;SDS011;60594;50.204;8.844;2022-10-04T18:01:47;7.93;;;3.72;;
72569;SDS011;60594;50.204;8.844;2022-10-04T18:04:22;8.23;;;3.90;;
72569;SDS011;60594;50.204;8.844;2022-10-04T18:06:57;7.13;;;3.40;;
72569;SDS011;60594;50.204;8.844;2022-10-04T18:09:39;6.55;;;3.25;;
72569;SDS011;60594;50.204;8.844;2022-10-04T18:12:22;9.75;;;3.33;;
72569;SDS011;60594;50.204;8.844;2022-10-04T18:14:58;6.68;;;3.17;;
72569;SDS011;60594;50.204;8.844;2022-10-04T18:17:41;7.13;;;3.10;;
72569;SDS011;60594;50.204;8.844;2022-10-04T18:20:27;6.18;;;3.05;;
72569;SDS011;60594;50.204;8.844;2022-10-04T18:23:14;7.78;;;3.13;;
72569;SDS011;60594;50.204;8.844;2022-10-04T18:25:43;8.50;;;2.80;;
72569;SDS011;60594;50.204;8.844;2022-10-04T18:28:12;6.97;;;2.97;;
72569;SDS011;60594;50.204;8.844;2022-10-04T18:34:06;5.32;;;2.63;;
72569;SDS011;60594;50.204;8.844;2022-10-04T18:38:59;5.47;;;2.90;;
72569;SDS011;60594;50.204;8.844;2022-10-04T18:41:42;6.68;;;2.75;;
72569;SDS011;60594;50.204;8.844;2022-10-04T18:44:19;7.05;;;3.13;;
72569;SDS011;60594;50.204;8.844;2022-10-04T18:46:55;6.65;;;2.88;;
72569;SDS011;60594;50.204;8.844;2022-10-04T18:49:24;5.05;;;2.90;;
72569;SDS011;60594;50.204;8.844;2022-10-04T18:52:03;7.03;;;2.88;;
72569;SDS011;60594;50.204;8.844;2022-10-04T18:57:30;4.75;;;2.33;;
72569;SDS011;60594;50.204;8.844;2022-10-04T19:00:21;5.38;;;3.00;;
72569;SDS011;60594;50.204;8.844;2022-10-04T19:05:42;4.43;;;2.42;;
72569;SDS011;60594;50.204;8.844;2022-10-04T19:08:28;6.97;;;2.20;;
72569;SDS011;60594;50.204;8.844;2022-10-04T19:11:02;4.72;;;2.28;;
72569;SDS011;60594;50.204;8.844;2022-10-04T19:13:50;5.40;;;2.72;;
72569;SDS011;60594;50.204;8.844;2022-10-04T19:16:23;5.00;;;2.40;;
72569;SDS011;60594;50.204;8.844;2022-10-04T19:19:12;4.75;;;2.33;;
72569;SDS011;60594;50.204;8.844;2022-10-04T19:21:57;5.93;;;2.50;;
72569;SDS011;60594;50.204;8.844;2022-10-04T19:29:54;4.95;;;2.88;;
72569;SDS011;60594;50.204;8.844;2022-10-04T19:32:46;5.25;;;2.78;;
72569;SDS011;60594;50.204;8.844;2022-10-04T19:41:53;6.10;;;2.42;;
72569;SDS011;60594;50.204;8.844;2022-10-04T19:58:27;6.35;;;2.78;;
72569;SDS011;60594;50.204;8.844;2022-10-04T20:01:15;6.35;;;2.70;;
72569;SDS011;60594;50.204;8.844;2022-10-04T20:03:50;5.80;;;2.90;;
72569;SDS011;60594;50.204;8.844;2022-10-04T20:06:51;5.82;;;3.08;;
72569;SDS011;60594;50.204;8.844;2022-10-04T20:09:23;5.35;;;2.70;;
72569;SDS011;60594;50.204;8.844;2022-10-04T20:12:05;4.72;;;2.92;;
72569;SDS011;60594;50.204;8.844;2022-10-04T20:17:40;6.97;;;3.00;;
72569;SDS011;60594;50.204;8.844;2022-10-04T20:20:09;7.40;;;3.17;;
72569;SDS011;60594;50.204;8.844;2022-10-04T20:28:56;11.35;;;3.75;;
72569;SDS011;60594;50.204;8.844;2022-10-04T20:31:01;6.18;;;3.15;;
72569;SDS011;60594;50.204;8.844;2022-10-04T20:38:42;5.28;;;2.72;;
72569;SDS011;60594;50.204;8.844;2022-10-04T20:46:20;6.47;;;2.45;;
72569;SDS011;60594;50.204;8.844;2022-10-04T20:48:48;6.20;;;2.65;;
72569;SDS011;60594;50.204;8.844;2022-10-04T20:51:17;6.50;;;3.00;;
72569;SDS011;60594;50.204;8.844;2022-10-04T20:53:45;7.28;;;3.05;;
72569;SDS011;60594;50.204;8.844;2022-10-04T20:56:27;5.75;;;2.58;;
72569;SDS011;60594;50.204;8.844;2022-10-04T20:58:59;5.63;;;2.90;;
72569;SDS011;60594;50.204;8.844;2022-10-04T21:01:34;6.13;;;3.33;;
72569;SDS011;60594;50.204;8.844;2022-10-04T21:07:07;7.22;;;3.22;;
72569;SDS011;60594;50.204;8.844;2022-10-04T21:09:39;6.07;;;2.75;;
72569;SDS011;60594;50.204;8.844;2022-10-04T21:12:26;8.32;;;3.45;;
72569;SDS011;60594;50.204;8.844;2022-10-04T21:17:40;7.43;;;2.95;;
72569;SDS011;60594;50.204;8.844;2022-10-04T21:20:12;5.93;;;2.80;;
72569;SDS011;60594;50.204;8.844;2022-10-04T21:22:41;8.73;;;3.63;;
72569;SDS011;60594;50.204;8.844;2022-10-04T21:25:25;6.15;;;3.28;;
72569;SDS011;60594;50.204;8.844;2022-10-04T21:30:50;5.50;;;2.55;;
72569;SDS011;60594;50.204;8.844;2022-10-04T21:33:17;5.93;;;3.13;;
72569;SDS011;60594;50.204;8.844;2022-10-04T21:35:43;7.72;;;3.42;;
72569;SDS011;60594;50.204;8.844;2022-10-04T21:38:10;5.95;;;3.90;;
72569;SDS011;60594;50.204;8.844;2022-10-04T21:40:39;8.20;;;3.40;;
72569;SDS011;60594;50.204;8.844;2022-10-04T21:43:08;8.45;;;3.60;;
72569;SDS011;60594;50.204;8.844;2022-10-04T21:45:35;10.15;;;3.50;;
72569;SDS011;60594;50.204;8.844;2022-10-04T21:48:01;7.05;;;3.33;;
72569;SDS011;60594;50.204;8.844;2022-10-04T21:50:28;7.53;;;3.40;;
72569;SDS011;60594;50.204;8.844;2022-10-04T21:52:54;8.00;;;3.20;;
72569;SDS011;60594;50.204;8.844;2022-10-04T21:55:23;9.73;;;3.13;;
72569;SDS011;60594;50.204;8.844;2022-10-04T21:57:49;7.60;;;3.42;;
72569;SDS011;60594;50.204;8.844;2022-10-04T22:00:16;8.90;;;3.60;;
72569;SDS011;60594;50.204;8.844;2022-10-04T22:02:43;9.60;;;3.40;;
72569;SDS011;60594;50.204;8.844;2022-10-04T22:05:09;7.25;;;3.38;;
72569;SDS011;60594;50.204;8.844;2022-10-04T22:07:37;8.18;;;3.15;;
72569;SDS011;60594;50.204;8.844;2022-10-04T22:10:03;6.90;;;3.60;;
72569;SDS011;60594;50.204;8.844;2022-10-04T22:12:30;7.13;;;3.28;;
72569;SDS011;60594;50.204;8.844;2022-10-04T22:14:56;8.57;;;3.47;;
72569;SDS011;60594;50.204;8.844;2022-10-04T22:17:23;5.93;;;3.35;;
72569;SDS011;60594;50.204;8.844;2022-10-04T22:19:49;7.43;;;3.50;;
72569;SDS011;60594;50.204;8.844;2022-10-04T22:22:18;7.25;;;3.63;;
72569;SDS011;60594;50.204;8.844;2022-10-04T22:24:45;6.90;;;3.22;;
72569;SDS011;60594;50.204;8.844;2022-10-04T22:27:17;5.20;;;2.88;;
72569;SDS011;60594;50.204;8.844;2022-10-04T22:29:45;6.47;;;3.15;;
72569;SDS011;60594;50.204;8.844;2022-10-04T22:32:16;6.00;;;3.33;;
72569;SDS011;60594;50.204;8.844;2022-10-04T22:34:57;5.72;;;3.03;;
72569;SDS011;60594;50.204;8.844;2022-10-04T22:37:27;6.78;;;3.33;;
72569;SDS011;60594;50.204;8.844;2022-10-04T22:39:56;8.30;;;3.60;;
72569;SDS011;60594;50.204;8.844;2022-10-04T22:42:24;6.60;;;3.05;;
72569;SDS011;60594;50.204;8.844;2022-10-04T22:44:55;6.20;;;3.05;;
72569;SDS011;60594;50.204;8.844;2022-10-04T22:47:23;5.45;;;3.00;;
72569;SDS011;60594;50.204;8.844;2022-10-04T22:49:50;6.18;;;3.08;;
72569;SDS011;60594;50.204;8.844;2022-10-04T22:52:19;6.78;;;2.72;;
72569;SDS011;60594;50.204;8.844;2022-10-04T22:54:48;6.28;;;2.92;;
72569;SDS011;60594;50.204;8.844;2022-10-04T22:57:16;7.22;;;3.28;;
72569;SDS011;60594;50.204;8.844;2022-10-04T22:59:45;5.68;;;2.85;;
72569;SDS011;60594;50.204;8.844;2022-10-04T23:04:53;4.78;;;2.55;;
72569;SDS011;60594;50.204;8.844;2022-10-04T23:07:43;4.95;;;2.65;;
72569;SDS011;60594;50.204;8.844;2022-10-04T23:10:10;5.75;;;3.05;;
72569;SDS011;60594;50.204;8.844;2022-10-04T23:12:39;7.70;;;2.80;;
72569;SDS011;60594;50.204;8.844;2022-10-04T23:15:06;6.40;;;2.63;;
72569;SDS011;60594;50.204;8.844;2022-10-04T23:17:34;5.22;;;2.85;;
72569;SDS011;60594;50.204;8.844;2022-10-04T23:20:11;7.10;;;3.05;;
72569;SDS011;60594;50.204;8.844;2022-10-04T23:22:44;4.95;;;2.70;;
72569;SDS011;60594;50.204;8.844;2022-10-04T23:25:16;5.95;;;2.60;;
72569;SDS011;60594;50.204;8.844;2022-10-04T23:27:46;5.53;;;2.42;;
72569;SDS011;60594;50.204;8.844;2022-10-04T23:30:14;5.18;;;2.55;;
72569;SDS011;60594;50.204;8.844;2022-10-04T23:32:44;5.25;;;2.47;;
72569;SDS011;60594;50.204;8.844;2022-10-04T23:35:18;5.75;;;2.35;;
72569;SDS011;60594;50.204;8.844;2022-10-04T23:37:50;4.57;;;2.20;;
72569;SDS011;60594;50.204;8.844;2022-10-04T23:40:19;4.93;;;2.60;;
72569;SDS011;60594;50.204;8.844;2022-10-04T23:42:48;6.45;;;2.78;;
72569;SDS011;60594;50.204;8.844;2022-10-04T23:45:19;6.53;;;2.78;;
72569;SDS011;60594;50.204;8.844;2022-10-04T23:47:48;5.53;;;2.75;;
72569;SDS011;60594;50.204;8.844;2022-10-04T23:52:57;6.50;;;2.72;;
72569;SDS011;60594;50.204;8.844;2022-10-04T23:55:30;6.30;;;2.72;;
72569;SDS011;60594;50.204;8.844;2022-10-04T23:57:59;5.75;;;3.05;;
